createdAt,value
2022-11-12T00:00:56.926Z,101956.69
2022-11-12T00:03:23.478Z,101957.41
2022-11-12T00:05:50.806Z,101953.75
2022-11-12T00:08:18.171Z,101954.41
2022-11-12T00:10:45.300Z,101944.47
2022-11-12T00:13:12.517Z,101937.44
2022-11-12T00:15:39.655Z,101940.84
2022-11-12T00:18:07.890Z,101937.97
2022-11-12T00:20:35.139Z,101927.91
2022-11-12T00:23:01.895Z,101922.28
2022-11-12T00:25:28.711Z,101922.78
2022-11-12T00:28:01.384Z,101925.06
2022-11-12T00:30:27.857Z,101924.72
2022-11-12T00:32:54.385Z,101924.41
2022-11-12T00:35:20.875Z,101921.53
2022-11-12T00:37:47.382Z,101926.81
2022-11-12T00:40:13.898Z,101916.91
2022-11-12T00:42:40.355Z,101915.97
2022-11-12T00:45:07.302Z,101910.53
2022-11-12T00:47:33.777Z,101901.63
2022-11-12T00:50:00.288Z,101897.25
2022-11-12T00:52:26.841Z,101895.38
2022-11-12T00:54:53.339Z,101895.28
2022-11-12T00:57:19.816Z,101902.41
2022-11-12T00:59:46.339Z,101906.81
2022-11-12T01:02:12.871Z,101906.81
2022-11-12T01:04:39.528Z,101903.13
2022-11-12T01:07:06.110Z,101893.34
2022-11-12T01:09:32.710Z,101896.81
2022-11-12T01:11:59.248Z,101893.19
2022-11-12T01:14:25.822Z,101890.47
2022-11-12T01:16:52.341Z,101879.69
2022-11-12T01:19:18.897Z,101884.22
2022-11-12T01:21:45.395Z,101887.72
2022-11-12T01:24:12.043Z,101882.28
2022-11-12T01:26:39.109Z,101878.59
2022-11-12T01:29:06.045Z,101876.78
2022-11-12T01:31:38.243Z,101875.84
2022-11-12T01:34:07.159Z,101874.78
2022-11-12T01:36:37.228Z,101873.81
2022-11-12T01:39:05.729Z,101876.44
2022-11-12T01:41:35.093Z,101873.66
2022-11-12T01:44:07.347Z,101871.94
2022-11-12T01:46:37.262Z,101871.09
2022-11-12T01:49:08.976Z,101874.53
2022-11-12T01:51:40.031Z,101870.84
2022-11-12T01:54:10.488Z,101867.16
2022-11-12T01:56:40.569Z,101868.91
2022-11-12T01:59:16.940Z,101871.63
2022-11-12T02:01:43.465Z,101872.59
2022-11-12T02:04:09.978Z,101868.91
2022-11-12T02:06:37.649Z,101870.69
2022-11-12T02:09:05.115Z,101865.44
2022-11-12T02:11:31.624Z,101864.72
2022-11-12T02:13:58.305Z,101860.53
2022-11-12T02:16:29.111Z,101858.00
2022-11-12T02:18:55.618Z,101856.25
2022-11-12T02:21:23.590Z,101850.06
2022-11-12T02:24:01.847Z,101853.81
2022-11-12T02:26:33.260Z,101852.06
2022-11-12T02:29:00.136Z,101850.41
2022-11-12T02:31:27.074Z,101846.94
2022-11-12T02:33:53.623Z,101860.22
2022-11-12T02:36:20.958Z,101855.16
2022-11-12T02:38:47.505Z,101855.34
2022-11-12T02:41:14.421Z,101858.94
2022-11-12T02:43:41.307Z,101855.63
2022-11-12T02:46:08.159Z,101861.97
2022-11-12T02:48:34.697Z,101865.66
2022-11-12T02:51:01.176Z,101859.53
2022-11-12T02:53:27.704Z,101870.94
2022-11-12T02:55:54.198Z,101867.44
2022-11-12T02:58:22.702Z,101862.09
2022-11-12T03:00:49.590Z,101864.59
2022-11-12T03:03:16.361Z,101855.63
2022-11-12T03:05:43.384Z,101863.41
2022-11-12T03:08:10.093Z,101860.81
2022-11-12T03:10:38.921Z,101854.69
2022-11-12T03:13:06.609Z,101861.91
2022-11-12T03:15:33.129Z,101867.16
2022-11-12T03:18:00.252Z,101864.19
2022-11-12T03:20:27.567Z,101863.13
2022-11-12T03:22:57.182Z,101866.03
2022-11-12T03:25:24.384Z,101871.44
2022-11-12T03:28:00.757Z,101875.13
2022-11-12T03:30:28.547Z,101873.34
2022-11-12T03:32:55.198Z,101873.41
2022-11-12T03:35:22.160Z,101878.88
2022-11-12T03:37:48.656Z,101876.19
2022-11-12T03:40:15.737Z,101878.31
2022-11-12T03:42:47.761Z,101880.03
2022-11-12T03:45:18.270Z,101881.06
2022-11-12T03:47:50.248Z,101878.97
2022-11-12T03:50:18.049Z,101876.56
2022-11-12T03:52:46.339Z,101880.25
2022-11-12T03:55:14.510Z,101886.53
2022-11-12T03:57:41.694Z,101877.19
2022-11-12T04:00:10.626Z,101876.88
2022-11-12T04:02:37.779Z,101885.50
2022-11-12T04:05:24.768Z,101890.22
2022-11-12T04:08:24.421Z,101887.19
2022-11-12T04:10:51.991Z,101880.34
2022-11-12T04:13:30.431Z,101879.59
2022-11-12T04:16:20.504Z,101873.59
2022-11-12T04:19:08.765Z,101877.25
2022-11-12T04:21:51.092Z,101872.38
2022-11-12T04:24:37.228Z,101870.78
2022-11-12T04:27:04.770Z,101867.94
2022-11-12T04:29:50.423Z,101875.72
2022-11-12T04:32:17.181Z,101883.78
2022-11-12T04:34:43.777Z,101873.72
2022-11-12T04:37:10.395Z,101880.06
2022-11-12T04:39:36.929Z,101874.66
2022-11-12T04:42:22.556Z,101880.53
2022-11-12T04:45:02.529Z,101872.38
2022-11-12T04:47:38.196Z,101871.50
2022-11-12T04:50:08.797Z,101864.97
2022-11-12T04:52:35.290Z,101866.09
2022-11-12T04:55:01.953Z,101870.81
2022-11-12T04:57:28.472Z,101865.25
2022-11-12T04:59:54.974Z,101872.72
2022-11-12T05:02:21.849Z,101877.19
2022-11-12T05:04:48.552Z,101889.28
2022-11-12T05:07:15.860Z,101888.88
2022-11-12T05:09:42.740Z,101884.84
2022-11-12T05:12:09.620Z,101891.34
2022-11-12T05:14:36.212Z,101893.31
2022-11-12T05:17:02.837Z,101888.94
2022-11-12T05:19:29.406Z,101894.50
2022-11-12T05:22:17.461Z,101887.72
2022-11-12T05:24:45.241Z,101892.34
2022-11-12T05:27:15.326Z,101896.75
2022-11-12T05:29:42.517Z,101900.94
2022-11-12T05:32:11.794Z,101895.09
2022-11-12T05:34:38.370Z,101889.97
2022-11-12T05:37:06.821Z,101888.38
2022-11-12T05:39:33.383Z,101894.63
2022-11-12T05:42:15.316Z,101884.16
2022-11-12T05:44:42.155Z,101877.84
2022-11-12T05:47:08.670Z,101888.34
2022-11-12T05:49:35.180Z,101892.06
2022-11-12T05:52:01.645Z,101887.84
2022-11-12T05:54:28.145Z,101893.97
2022-11-12T05:56:54.648Z,101899.91
2022-11-12T05:59:22.226Z,101901.66
2022-11-12T06:01:48.776Z,101908.53
2022-11-12T06:04:15.998Z,101906.00
2022-11-12T06:06:43.334Z,101904.19
2022-11-12T06:09:10.832Z,101915.81
2022-11-12T06:11:37.844Z,101914.84
2022-11-12T06:14:05.036Z,101927.19
2022-11-12T06:16:32.994Z,101932.28
2022-11-12T06:18:59.888Z,101936.50
2022-11-12T06:21:27.875Z,101938.31
2022-11-12T06:23:59.266Z,101947.03
2022-11-12T06:26:27.955Z,101939.97
2022-11-12T06:28:54.979Z,101936.31
2022-11-12T06:31:22.024Z,101937.13
2022-11-12T06:33:49.337Z,101942.25
2022-11-12T06:36:18.844Z,101951.22
2022-11-12T06:38:45.714Z,101949.44
2022-11-12T06:41:13.238Z,101956.38
2022-11-12T06:43:40.527Z,101962.22
2022-11-12T06:46:11.208Z,101960.22
2022-11-12T06:48:37.932Z,101959.94
2022-11-12T06:51:17.053Z,101957.94
2022-11-12T06:53:44.154Z,101954.06
2022-11-12T06:56:13.821Z,101951.84
2022-11-12T06:58:40.768Z,101949.69
2022-11-12T07:01:12.063Z,101953.81
2022-11-12T07:03:40.485Z,101954.06
2022-11-12T07:06:12.224Z,101958.06
2022-11-12T07:08:39.713Z,101965.53
2022-11-12T07:11:07.661Z,101971.22
2022-11-12T07:13:35.914Z,101982.16
2022-11-12T07:16:02.935Z,101982.38
2022-11-12T07:18:30.521Z,101976.38
2022-11-12T07:21:01.775Z,101977.47
2022-11-12T07:23:30.026Z,101968.06
2022-11-12T07:26:02.479Z,101960.44
2022-11-12T07:28:29.752Z,101965.31
2022-11-12T07:31:04.906Z,101964.75
2022-11-12T07:33:32.231Z,101965.84
2022-11-12T07:36:01.124Z,101960.81
2022-11-12T07:38:29.586Z,101956.53
2022-11-12T07:41:08.548Z,101947.56
2022-11-12T07:43:36.956Z,101946.59
2022-11-12T07:46:10.884Z,101951.97
2022-11-12T07:48:38.277Z,101960.81
2022-11-12T07:51:08.446Z,101952.63
2022-11-12T07:53:34.946Z,101948.91
2022-11-12T07:56:04.533Z,101946.19
2022-11-12T07:58:32.688Z,101956.16
2022-11-12T08:01:08.423Z,101962.84
2022-11-12T08:03:35.259Z,101973.09
2022-11-12T08:06:02.091Z,101976.81
2022-11-12T08:08:28.939Z,101973.34
2022-11-12T08:10:59.773Z,101978.78
2022-11-12T08:13:26.307Z,101979.31
2022-11-12T08:15:52.843Z,101972.56
2022-11-12T08:18:19.494Z,101986.25
2022-11-12T08:20:45.964Z,101987.53
2022-11-12T08:23:12.458Z,101981.72
2022-11-12T08:25:38.944Z,101983.09
2022-11-12T08:28:05.573Z,101979.53
2022-11-12T08:30:32.143Z,101985.25
2022-11-12T08:33:02.382Z,101983.94
2022-11-12T08:35:30.324Z,101988.75
2022-11-12T08:38:06.653Z,101991.84
2022-11-12T08:40:34.065Z,101994.19
2022-11-12T08:43:08.865Z,101996.41
2022-11-12T08:45:38.273Z,101993.06
2022-11-12T08:48:10.087Z,101989.91
2022-11-12T08:50:37.056Z,101992.69
2022-11-12T08:53:05.900Z,101998.94
2022-11-12T08:55:35.966Z,102001.53
2022-11-12T08:58:03.757Z,102009.78
2022-11-12T09:00:50.870Z,102007.41
2022-11-12T09:03:19.698Z,102012.84
2022-11-12T09:05:46.299Z,102017.94
2022-11-12T09:08:19.050Z,102021.69
2022-11-12T09:10:46.750Z,102019.28
2022-11-12T09:13:16.319Z,102022.66
2022-11-12T09:15:43.079Z,102019.38
2022-11-12T09:18:17.486Z,102026.31
2022-11-12T09:20:44.606Z,102034.28
2022-11-12T09:23:13.848Z,102027.34
2022-11-12T09:25:41.443Z,102036.78
2022-11-12T09:28:18.897Z,102042.75
2022-11-12T09:30:48.456Z,102045.00
2022-11-12T09:33:19.638Z,102051.63
2022-11-12T09:35:47.470Z,102049.91
2022-11-12T09:38:15.355Z,102047.63
2022-11-12T09:40:51.075Z,102041.41
2022-11-12T09:43:43.305Z,102042.94
2022-11-12T09:46:45.153Z,102037.56
2022-11-12T09:49:17.843Z,102033.97
2022-11-12T09:51:53.852Z,102041.38
2022-11-12T09:54:30.230Z,102041.44
2022-11-12T09:56:56.918Z,102043.81
2022-11-12T09:59:28.790Z,102052.22
2022-11-12T10:02:31.882Z,102052.28
2022-11-12T10:05:16.538Z,102059.69
2022-11-12T10:08:00.590Z,102059.00
2022-11-12T10:10:49.966Z,102054.53
2022-11-12T10:13:42.321Z,102057.22
2022-11-12T10:16:42.468Z,102050.91
2022-11-12T10:19:26.933Z,102047.84
2022-11-12T10:22:16.391Z,102042.03
2022-11-12T10:24:44.685Z,102029.75
2022-11-12T10:27:16.154Z,102029.38
2022-11-12T10:30:00.673Z,102025.84
2022-11-12T10:32:27.080Z,102027.75
2022-11-12T10:34:53.652Z,102019.22
2022-11-12T10:37:26.173Z,102029.09
2022-11-12T10:39:53.226Z,102024.78
2022-11-12T10:42:22.095Z,102025.41
2022-11-12T10:44:48.981Z,102016.66
2022-11-12T10:47:33.342Z,102009.53
2022-11-12T10:49:59.672Z,102011.28
2022-11-12T10:52:26.173Z,102012.81
2022-11-12T10:55:15.766Z,102010.88
2022-11-12T10:57:42.294Z,102011.41
2022-11-12T11:00:18.176Z,102005.09
2022-11-12T11:02:53.171Z,102002.38
2022-11-12T11:05:31.527Z,102006.41
2022-11-12T11:07:58.176Z,102001.94
2022-11-12T11:10:27.946Z,102001.34
2022-11-12T11:13:09.817Z,101993.63
2022-11-12T11:15:37.835Z,101990.84
2022-11-12T11:18:06.660Z,101990.72
2022-11-12T11:20:46.295Z,101982.09
2022-11-12T11:23:48.193Z,101983.59
2022-11-12T11:26:36.907Z,101985.50
2022-11-12T11:29:21.881Z,101980.00
2022-11-12T11:32:17.439Z,101982.59
2022-11-12T11:34:52.880Z,101987.81
2022-11-12T11:37:37.045Z,101986.56
2022-11-12T11:40:06.775Z,101987.78
2022-11-12T11:42:58.091Z,101991.81
2022-11-12T11:45:56.784Z,101984.19
2022-11-12T11:48:34.902Z,101981.88
2022-11-12T11:51:24.816Z,101973.41
2022-11-12T11:54:09.213Z,101981.81
2022-11-12T11:56:42.690Z,101968.03
2022-11-12T11:59:21.201Z,101963.78
2022-11-12T12:02:06.550Z,101964.69
2022-11-12T12:04:38.935Z,101965.63
2022-11-12T12:07:30.314Z,101971.91
2022-11-12T12:10:12.102Z,101966.38
2022-11-12T12:12:47.384Z,101958.91
2022-11-12T12:15:35.185Z,101953.78
2022-11-12T12:18:20.045Z,101949.88
2022-11-12T12:21:08.394Z,101945.97
2022-11-12T12:23:48.633Z,101947.38
2022-11-12T12:26:22.024Z,101945.88
2022-11-12T12:28:53.837Z,101947.78
2022-11-12T12:31:27.292Z,101954.84
2022-11-12T12:33:58.866Z,101941.34
2022-11-12T12:36:38.769Z,101939.75
2022-11-12T12:39:19.116Z,101940.09
2022-11-12T12:41:56.985Z,101944.88
2022-11-12T12:44:44.634Z,101940.03
2022-11-12T12:47:14.158Z,101942.63
2022-11-12T12:49:41.975Z,101934.09
2022-11-12T12:52:12.778Z,101935.47
2022-11-12T12:54:54.768Z,101933.78
2022-11-12T12:57:31.495Z,101944.44
2022-11-12T13:00:35.283Z,101937.47
2022-11-12T13:03:01.957Z,101935.19
2022-11-12T13:05:34.523Z,101937.81
2022-11-12T13:08:13.573Z,101941.00
2022-11-12T13:10:41.273Z,101939.78
2022-11-12T13:13:19.822Z,101935.34
2022-11-12T13:15:54.184Z,101931.94
2022-11-12T13:18:38.720Z,101925.50
2022-11-12T13:21:31.390Z,101930.22
2022-11-12T13:24:12.739Z,101937.25
2022-11-12T13:26:57.605Z,101931.59
2022-11-12T13:29:48.528Z,101932.31
2022-11-12T13:32:28.093Z,101928.72
2022-11-12T13:35:34.782Z,101939.28
2022-11-12T13:38:13.066Z,101938.25
2022-11-12T13:40:58.211Z,101942.22
2022-11-12T13:43:33.972Z,101942.63
2022-11-12T13:46:12.206Z,101944.47
2022-11-12T13:48:44.715Z,101941.25
2022-11-12T13:51:39.993Z,101951.25
2022-11-12T13:54:26.498Z,101954.78
2022-11-12T13:56:53.145Z,101952.63
2022-11-12T13:59:22.536Z,101946.34
2022-11-12T14:01:50.064Z,101952.44
2022-11-12T14:04:19.892Z,101954.25
2022-11-12T14:06:56.393Z,101950.31
2022-11-12T14:09:29.842Z,101956.44
2022-11-12T14:12:21.273Z,101940.81
2022-11-12T14:15:07.271Z,101953.03
2022-11-12T14:17:55.564Z,101950.22
2022-11-12T14:20:29.021Z,101945.72
2022-11-12T14:22:55.592Z,101948.59
2022-11-12T14:25:25.081Z,101949.59
2022-11-12T14:27:53.689Z,101944.81
2022-11-12T14:30:21.968Z,101942.13
2022-11-12T14:33:02.009Z,101933.50
2022-11-12T14:35:30.362Z,101943.75
2022-11-12T14:38:09.129Z,101943.00
2022-11-12T14:40:42.261Z,101938.06
2022-11-12T14:43:26.181Z,101939.91
2022-11-12T14:45:55.686Z,101940.19
2022-11-12T14:48:22.521Z,101939.44
2022-11-12T14:50:55.930Z,101933.06
2022-11-12T14:53:28.841Z,101928.25
2022-11-12T14:55:56.623Z,101934.28
2022-11-12T14:58:24.719Z,101941.28
2022-11-12T15:00:53.175Z,101942.63
2022-11-12T15:03:32.702Z,101943.56
2022-11-12T15:05:59.294Z,101944.81
2022-11-12T15:08:37.650Z,101947.22
2022-11-12T15:11:22.261Z,101950.78
2022-11-12T15:13:50.545Z,101954.03
2022-11-12T15:16:21.622Z,101956.38
2022-11-12T15:19:26.708Z,101949.19
2022-11-12T15:22:01.170Z,101946.84
2022-11-12T15:24:33.565Z,101950.91
2022-11-12T15:27:03.156Z,101957.50
2022-11-12T15:29:34.696Z,101961.03
2022-11-12T15:32:13.798Z,101959.44
2022-11-12T15:34:40.620Z,101953.81
2022-11-12T15:37:19.182Z,101960.03
2022-11-12T15:39:49.361Z,101963.28
2022-11-12T15:42:33.908Z,101958.69
2022-11-12T15:45:02.861Z,101973.44
2022-11-12T15:47:29.452Z,101969.44
2022-11-12T15:49:58.850Z,101971.72
2022-11-12T15:52:25.583Z,101972.25
2022-11-12T15:54:52.168Z,101980.47
2022-11-12T15:57:22.506Z,101978.22
2022-11-12T16:00:07.443Z,101983.91
2022-11-12T16:02:34.950Z,101983.59
2022-11-12T16:05:01.769Z,101992.66
2022-11-12T16:07:28.281Z,101998.47
2022-11-12T16:09:54.864Z,101994.53
2022-11-12T16:12:21.647Z,101998.78
2022-11-12T16:14:48.170Z,101997.59
2022-11-12T16:17:17.155Z,101991.03
2022-11-12T16:19:43.728Z,101981.31
2022-11-12T16:22:12.857Z,101985.38
2022-11-12T16:24:42.606Z,101985.63
2022-11-12T16:27:14.892Z,101988.44
2022-11-12T16:29:41.645Z,101986.28
2022-11-12T16:32:13.025Z,101986.16
2022-11-12T16:34:39.508Z,101987.66
2022-11-12T16:37:08.867Z,101980.75
2022-11-12T16:39:35.390Z,101985.06
2022-11-12T16:42:01.977Z,101983.09
2022-11-12T16:44:28.514Z,101982.97
2022-11-12T16:46:55.045Z,101979.28
2022-11-12T16:49:21.570Z,101978.28
2022-11-12T16:51:48.927Z,101978.50
2022-11-12T16:54:15.441Z,101981.03
2022-11-12T16:56:41.929Z,101987.03
2022-11-12T16:59:11.975Z,101986.28
2022-11-12T17:01:38.489Z,101983.03
2022-11-12T17:04:05.060Z,101984.72
2022-11-12T17:06:34.440Z,101979.50
2022-11-12T17:09:00.951Z,101983.63
2022-11-12T17:11:27.432Z,101975.19
2022-11-12T17:13:53.934Z,101982.38
2022-11-12T17:16:20.529Z,101979.66
2022-11-12T17:18:47.052Z,101984.84
2022-11-12T17:21:18.448Z,101981.59
2022-11-12T17:23:45.004Z,101980.25
2022-11-12T17:26:18.041Z,101984.31
2022-11-12T17:28:45.473Z,101981.78
2022-11-12T17:31:15.111Z,101977.84
2022-11-12T17:33:49.891Z,101975.88
2022-11-12T17:36:24.081Z,101973.78
2022-11-12T17:38:59.153Z,101972.94
2022-11-12T17:41:30.530Z,101967.94
2022-11-12T17:43:59.404Z,101985.38
2022-11-12T17:46:26.525Z,101977.72
2022-11-12T17:48:54.849Z,101979.03
2022-11-12T17:51:23.624Z,101982.16
2022-11-12T17:53:50.701Z,101974.94
2022-11-12T17:56:20.045Z,101978.47
2022-11-12T17:58:47.301Z,101983.03
2022-11-12T18:01:22.676Z,101976.31
2022-11-12T18:03:50.783Z,101979.69
2022-11-12T18:06:23.015Z,101979.34
2022-11-12T18:08:57.670Z,101986.91
2022-11-12T18:11:25.466Z,101985.25
2022-11-12T18:13:53.032Z,101983.44
2022-11-12T18:16:22.877Z,101980.00
2022-11-12T18:18:49.772Z,101986.28
2022-11-12T18:21:17.629Z,101981.97
2022-11-12T18:23:44.945Z,101987.00
2022-11-12T18:26:18.123Z,101992.22
2022-11-12T18:28:50.143Z,101987.69
2022-11-12T18:31:17.467Z,101994.63
2022-11-12T18:33:43.965Z,101989.00
2022-11-12T18:36:12.897Z,101997.16
2022-11-12T18:38:39.462Z,101992.81
2022-11-12T18:41:12.609Z,101999.47
2022-11-12T18:43:40.248Z,101995.59
2022-11-12T18:46:08.681Z,101994.31
2022-11-12T18:48:37.335Z,102001.84
2022-11-12T18:51:08.989Z,101997.25
2022-11-12T18:53:36.438Z,102005.66
2022-11-12T18:56:15.093Z,102005.03
2022-11-12T18:58:41.882Z,102008.16
2022-11-12T19:01:12.116Z,102011.13
2022-11-12T19:03:38.702Z,102010.94
2022-11-12T19:06:06.839Z,102007.13
2022-11-12T19:08:34.077Z,102005.94
2022-11-12T19:11:06.955Z,102005.81
2022-11-12T19:13:33.948Z,102010.50
2022-11-12T19:16:05.750Z,102009.03
2022-11-12T19:18:32.838Z,102013.44
2022-11-12T19:21:04.833Z,102016.31
2022-11-12T19:23:31.696Z,102012.16
2022-11-12T19:26:02.445Z,102014.06
2022-11-12T19:28:29.705Z,102014.91
2022-11-12T19:30:56.926Z,102020.38
2022-11-12T19:33:23.943Z,102019.44
2022-11-12T19:35:50.428Z,102031.22
2022-11-12T19:38:16.893Z,102027.72
2022-11-12T19:40:43.427Z,102033.09
2022-11-12T19:43:10.020Z,102029.09
2022-11-12T19:45:37.233Z,102032.94
2022-11-12T19:48:04.451Z,102029.53
2022-11-12T19:50:33.525Z,102033.78
2022-11-12T19:53:00.277Z,102031.97
2022-11-12T19:55:28.953Z,102041.34
2022-11-12T19:57:55.585Z,102047.28
2022-11-12T20:00:22.506Z,102048.94
2022-11-12T20:02:49.093Z,102042.53
2022-11-12T20:05:15.742Z,102043.50
2022-11-12T20:07:42.257Z,102052.59
2022-11-12T20:10:09.248Z,102049.91
2022-11-12T20:12:36.564Z,102052.84
2022-11-12T20:15:03.210Z,102051.25
2022-11-12T20:17:32.400Z,102050.94
2022-11-12T20:19:59.679Z,102052.31
2022-11-12T20:22:31.638Z,102050.69
2022-11-12T20:24:58.937Z,102053.38
2022-11-12T20:27:25.726Z,102060.63
2022-11-12T20:29:52.750Z,102054.41
2022-11-12T20:32:20.947Z,102049.13
2022-11-12T20:34:47.461Z,102055.53
2022-11-12T20:37:13.973Z,102052.22
2022-11-12T20:39:40.475Z,102050.22
2022-11-12T20:42:07.032Z,102045.97
2022-11-12T20:44:33.571Z,102047.53
2022-11-12T20:47:01.449Z,102045.75
2022-11-12T20:49:27.953Z,102043.28
2022-11-12T20:51:54.434Z,102047.13
2022-11-12T20:54:21.149Z,102045.47
2022-11-12T20:56:50.569Z,102043.63
2022-11-12T20:59:17.097Z,102043.16
2022-11-12T21:01:43.868Z,102042.44
2022-11-12T21:04:12.291Z,102060.75
2022-11-12T21:06:39.135Z,102053.53
2022-11-12T21:09:05.753Z,102058.09
2022-11-12T21:11:32.254Z,102063.16
2022-11-12T21:13:59.920Z,102053.69
2022-11-12T21:16:26.666Z,102056.06
2022-11-12T21:18:53.309Z,102051.50
2022-11-12T21:21:21.274Z,102054.16
2022-11-12T21:23:50.256Z,102045.69
2022-11-12T21:26:22.089Z,102051.06
2022-11-12T21:28:53.651Z,102049.59
2022-11-12T21:31:28.194Z,102047.59
2022-11-12T21:33:58.227Z,102044.28
2022-11-12T21:36:27.793Z,102046.16
2022-11-12T21:38:54.356Z,102053.06
2022-11-12T21:41:23.857Z,102056.53
2022-11-12T21:43:50.910Z,102057.84
2022-11-12T21:46:22.895Z,102058.31
2022-11-12T21:48:54.941Z,102051.28
2022-11-12T21:51:33.084Z,102044.41
2022-11-12T21:54:05.622Z,102044.03
2022-11-12T21:56:34.200Z,102049.44
2022-11-12T21:59:01.580Z,102044.38
2022-11-12T22:01:30.063Z,102049.13
2022-11-12T22:03:58.044Z,102051.72
2022-11-12T22:06:27.426Z,102055.34
2022-11-12T22:08:55.152Z,102041.53
2022-11-12T22:11:22.786Z,102039.69
2022-11-12T22:13:49.675Z,102041.59
2022-11-12T22:16:23.449Z,102038.97
2022-11-12T22:18:52.295Z,102037.91
2022-11-12T22:21:24.096Z,102048.09
2022-11-12T22:23:50.690Z,102044.34
2022-11-12T22:26:22.801Z,102053.91
2022-11-12T22:28:49.336Z,102057.88
2022-11-12T22:31:21.231Z,102047.75
2022-11-12T22:33:48.246Z,102054.09
2022-11-12T22:36:23.111Z,102056.22
2022-11-12T22:38:51.619Z,102048.91
2022-11-12T22:41:26.669Z,102056.59
2022-11-12T22:43:55.991Z,102049.22
2022-11-12T22:46:28.225Z,102047.53
2022-11-12T22:48:55.750Z,102047.50
2022-11-12T22:51:25.523Z,102046.06
2022-11-12T22:53:57.334Z,102056.53
2022-11-12T22:56:24.988Z,102049.63
2022-11-12T22:58:52.235Z,102053.22
2022-11-12T23:01:27.336Z,102047.94
2022-11-12T23:04:02.112Z,102053.66
2022-11-12T23:06:29.403Z,102054.13
2022-11-12T23:08:57.689Z,102049.84
2022-11-12T23:11:26.199Z,102052.78
2022-11-12T23:13:54.231Z,102054.88
2022-11-12T23:16:26.523Z,102052.59
2022-11-12T23:18:54.904Z,102053.31
2022-11-12T23:21:24.293Z,102048.94
2022-11-12T23:23:51.085Z,102056.38
2022-11-12T23:26:21.281Z,102054.03
2022-11-12T23:28:48.209Z,102055.94
2022-11-12T23:31:19.997Z,102060.56
2022-11-12T23:33:48.389Z,102059.78
2022-11-12T23:36:15.169Z,102058.91
2022-11-12T23:38:42.851Z,102048.03
2022-11-12T23:41:15.117Z,102045.47
2022-11-12T23:43:41.741Z,102064.34
2022-11-12T23:46:08.405Z,102062.88
2022-11-12T23:48:34.919Z,102065.50
2022-11-12T23:51:07.563Z,102063.97
2022-11-12T23:53:35.385Z,102070.28
2022-11-12T23:56:02.208Z,102059.91
2022-11-12T23:58:29.332Z,102061.16
